Ithaca Tompkins Regional Airport
KITH : now visible

Airfield :











YOU CAN JOIN US ON...

 
LOGIN :

Register | Disclaimer

   EN    FR    IT 

 









Legend :    VFR   Marginal VFR   IFR   Intensive IFR   Very Intensive IFR
Visi :
Ceiling :
>= 8 km
>= 3000ft
5 to 8 km
1000 to 3000 ft
1500m to 5 km
500 to 1000 ft
800 to 1500m
200 to 500 ft
< 800m
< 200 ft
Symbols :   Thunderstorms  Fog  Heavy snow  Heavy precipitations  Wind > 20 kt






- Airport Elevation : 1099 ft
- IATA code : ITH


KITH - Ithaca Tompkins Regional

CURRENT METAR :
  • 080556Z AUTO 30005KT 10SM OVC025 04/01 A3004 RMK AO2 SLP182 60000 T00390006 10039 20022 53013

EXPIRED METARs :
  • 080456Z AUTO 23005KT 10SM BKN029 OVC039 04/01 A3003 RMK AO2 SLP178 T00390006
  • 080356Z AUTO 19009KT 10SM BKN038 OVC047 04/00 A3001 RMK AO2 SLP172 T00390000 400561067

TAF KITH
Valid from the 08 at 06:00 until the 09 at 06:00 UTC


080528Z 0806/0906 24010KT P6SM OVC025
FM080800 29010G16KT P6SM OVC025
FM081300 30010G17KT P6SM FEW025 BKN035
FM081900 30010KT P6SM SCT250
FM090000 VRB03KT P6SM SCT250
KZNY FIR / North America



MET'MAP, your aeronautical weather chart ! - Copyright ORBIFLY December 2007 - Disclaimer

ORBIFLY MET'MAP TEAM :

Programming & Development : Alexandra Zaïnal
Original concept : Baudouin d'Aumeries
Technical & hardware support : Manuel Goepfert
Assistance : Marc-Olivier Méhu




SOURCES & CREDITS :

   NOAA       Earth
Advisory